sensor_id;sensor_type;location;lat;lon;timestamp;P1;durP1;ratioP1;P2;durP2;ratioP2
75295;SDS011;64623;44.738;37.804;2024-01-27T00:00:51;6.57;;;1.85;;
75295;SDS011;64623;44.738;37.804;2024-01-27T00:01:54;3.95;;;1.63;;
75295;SDS011;64623;44.738;37.804;2024-01-27T00:02:57;7.10;;;2.05;;
75295;SDS011;64623;44.738;37.804;2024-01-27T00:04:00;3.35;;;1.60;;
75295;SDS011;64623;44.738;37.804;2024-01-27T00:05:03;2.50;;;1.42;;
75295;SDS011;64623;44.738;37.804;2024-01-27T00:06:06;3.60;;;2.17;;
75295;SDS011;64623;44.738;37.804;2024-01-27T00:07:09;2.92;;;2.60;;
75295;SDS011;64623;44.738;37.804;2024-01-27T00:08:12;2.63;;;1.52;;
75295;SDS011;64623;44.738;37.804;2024-01-27T00:09:15;3.95;;;1.80;;
75295;SDS011;64623;44.738;37.804;2024-01-27T00:10:18;2.05;;;0.90;;
75295;SDS011;64623;44.738;37.804;2024-01-27T00:11:21;1.27;;;0.90;;
75295;SDS011;64623;44.738;37.804;2024-01-27T00:12:27;1.52;;;1.08;;
75295;SDS011;64623;44.738;37.804;2024-01-27T00:13:31;2.50;;;1.92;;
75295;SDS011;64623;44.738;37.804;2024-01-27T00:14:34;1.70;;;1.13;;
75295;SDS011;64623;44.738;37.804;2024-01-27T00:15:40;2.08;;;1.00;;
75295;SDS011;64623;44.738;37.804;2024-01-27T00:16:43;1.75;;;1.02;;
75295;SDS011;64623;44.738;37.804;2024-01-27T00:17:46;1.73;;;0.90;;
75295;SDS011;64623;44.738;37.804;2024-01-27T00:18:49;1.50;;;1.17;;
75295;SDS011;64623;44.738;37.804;2024-01-27T00:19:53;1.70;;;0.90;;
75295;SDS011;64623;44.738;37.804;2024-01-27T00:20:56;1.92;;;0.38;;
75295;SDS011;64623;44.738;37.804;2024-01-27T00:21:59;3.35;;;0.60;;
75295;SDS011;64623;44.738;37.804;2024-01-27T00:23:02;1.65;;;0.43;;
75295;SDS011;64623;44.738;37.804;2024-01-27T00:24:05;0.85;;;0.47;;
75295;SDS011;64623;44.738;37.804;2024-01-27T00:25:08;0.57;;;0.30;;
75295;SDS011;64623;44.738;37.804;2024-01-27T00:26:11;0.70;;;0.15;;
75295;SDS011;64623;44.738;37.804;2024-01-27T00:27:14;0.95;;;0.15;;
75295;SDS011;64623;44.738;37.804;2024-01-27T00:28:18;1.25;;;0.32;;
75295;SDS011;64623;44.738;37.804;2024-01-27T00:29:21;0.77;;;0.30;;
75295;SDS011;64623;44.738;37.804;2024-01-27T00:30:24;0.75;;;0.40;;
75295;SDS011;64623;44.738;37.804;2024-01-27T00:31:28;1.13;;;0.43;;
75295;SDS011;64623;44.738;37.804;2024-01-27T00:32:31;1.05;;;0.20;;
75295;SDS011;64623;44.738;37.804;2024-01-27T00:33:36;0.63;;;0.28;;
75295;SDS011;64623;44.738;37.804;2024-01-27T00:34:39;1.27;;;0.70;;
75295;SDS011;64623;44.738;37.804;2024-01-27T00:35:42;1.10;;;0.60;;
75295;SDS011;64623;44.738;37.804;2024-01-27T00:36:45;0.50;;;0.40;;
75295;SDS011;64623;44.738;37.804;2024-01-27T00:37:51;0.68;;;0.30;;
75295;SDS011;64623;44.738;37.804;2024-01-27T00:38:54;0.82;;;0.25;;
75295;SDS011;64623;44.738;37.804;2024-01-27T00:39:57;0.88;;;0.13;;
75295;SDS011;64623;44.738;37.804;2024-01-27T00:41:00;0.57;;;0.25;;
75295;SDS011;64623;44.738;37.804;2024-01-27T00:42:03;1.08;;;0.28;;
75295;SDS011;64623;44.738;37.804;2024-01-27T00:43:06;0.82;;;0.30;;
75295;SDS011;64623;44.738;37.804;2024-01-27T00:44:09;0.73;;;0.20;;
75295;SDS011;64623;44.738;37.804;2024-01-27T00:45:12;1.60;;;0.57;;
75295;SDS011;64623;44.738;37.804;2024-01-27T00:46:15;1.15;;;0.50;;
75295;SDS011;64623;44.738;37.804;2024-01-27T00:47:18;1.08;;;0.25;;
75295;SDS011;64623;44.738;37.804;2024-01-27T00:48:21;1.00;;;0.45;;
75295;SDS011;64623;44.738;37.804;2024-01-27T00:49:25;1.95;;;0.60;;
75295;SDS011;64623;44.738;37.804;2024-01-27T00:50:28;2.05;;;0.52;;
75295;SDS011;64623;44.738;37.804;2024-01-27T00:51:31;1.98;;;0.60;;
75295;SDS011;64623;44.738;37.804;2024-01-27T00:52:34;0.90;;;0.17;;
75295;SDS011;64623;44.738;37.804;2024-01-27T00:53:37;0.80;;;0.43;;
75295;SDS011;64623;44.738;37.804;2024-01-27T00:54:41;0.93;;;0.20;;
75295;SDS011;64623;44.738;37.804;2024-01-27T00:55:44;1.77;;;0.38;;
75295;SDS011;64623;44.738;37.804;2024-01-27T00:56:47;1.40;;;0.45;;
75295;SDS011;64623;44.738;37.804;2024-01-27T00:57:50;1.58;;;0.40;;
75295;SDS011;64623;44.738;37.804;2024-01-27T00:58:53;0.88;;;0.40;;
75295;SDS011;64623;44.738;37.804;2024-01-27T00:59:56;2.22;;;1.02;;
75295;SDS011;64623;44.738;37.804;2024-01-27T01:00:59;0.93;;;0.35;;
75295;SDS011;64623;44.738;37.804;2024-01-27T01:02:03;0.63;;;0.43;;
75295;SDS011;64623;44.738;37.804;2024-01-27T01:03:06;1.20;;;0.30;;
75295;SDS011;64623;44.738;37.804;2024-01-27T01:04:09;1.33;;;0.22;;
75295;SDS011;64623;44.738;37.804;2024-01-27T01:05:12;1.90;;;1.48;;
75295;SDS011;64623;44.738;37.804;2024-01-27T01:06:16;1.80;;;1.00;;
75295;SDS011;64623;44.738;37.804;2024-01-27T01:07:19;2.90;;;1.55;;
75295;SDS011;64623;44.738;37.804;2024-01-27T01:08:22;2.95;;;0.63;;
75295;SDS011;64623;44.738;37.804;2024-01-27T01:09:25;1.42;;;0.60;;
75295;SDS011;64623;44.738;37.804;2024-01-27T01:10:28;1.45;;;0.65;;
75295;SDS011;64623;44.738;37.804;2024-01-27T01:11:31;1.80;;;0.45;;
75295;SDS011;64623;44.738;37.804;2024-01-27T01:12:35;1.20;;;0.43;;
75295;SDS011;64623;44.738;37.804;2024-01-27T01:13:38;1.35;;;0.68;;
75295;SDS011;64623;44.738;37.804;2024-01-27T01:14:42;1.02;;;0.43;;
75295;SDS011;64623;44.738;37.804;2024-01-27T01:15:45;0.85;;;0.40;;
75295;SDS011;64623;44.738;37.804;2024-01-27T01:16:49;0.60;;;0.40;;
75295;SDS011;64623;44.738;37.804;2024-01-27T01:17:52;0.90;;;0.28;;
75295;SDS011;64623;44.738;37.804;2024-01-27T01:18:55;1.10;;;1.00;;
75295;SDS011;64623;44.738;37.804;2024-01-27T01:19:58;1.00;;;0.28;;
75295;SDS011;64623;44.738;37.804;2024-01-27T01:21:01;0.80;;;0.40;;
75295;SDS011;64623;44.738;37.804;2024-01-27T01:22:04;1.30;;;0.90;;
75295;SDS011;64623;44.738;37.804;2024-01-27T01:23:08;1.67;;;0.22;;
75295;SDS011;64623;44.738;37.804;2024-01-27T01:24:11;1.33;;;0.40;;
75295;SDS011;64623;44.738;37.804;2024-01-27T01:25:17;1.08;;;0.45;;
75295;SDS011;64623;44.738;37.804;2024-01-27T01:26:20;0.93;;;0.30;;
75295;SDS011;64623;44.738;37.804;2024-01-27T01:27:23;1.27;;;0.43;;
75295;SDS011;64623;44.738;37.804;2024-01-27T01:28:26;1.90;;;1.60;;
75295;SDS011;64623;44.738;37.804;2024-01-27T01:29:30;1.77;;;0.52;;
75295;SDS011;64623;44.738;37.804;2024-01-27T01:30:33;1.08;;;0.40;;
75295;SDS011;64623;44.738;37.804;2024-01-27T01:31:36;1.63;;;0.55;;
75295;SDS011;64623;44.738;37.804;2024-01-27T01:32:39;0.85;;;0.30;;
75295;SDS011;64623;44.738;37.804;2024-01-27T01:33:43;0.82;;;0.40;;
75295;SDS011;64623;44.738;37.804;2024-01-27T01:34:47;1.75;;;0.43;;
75295;SDS011;64623;44.738;37.804;2024-01-27T01:35:50;1.80;;;0.45;;
75295;SDS011;64623;44.738;37.804;2024-01-27T01:36:53;1.52;;;0.52;;
75295;SDS011;64623;44.738;37.804;2024-01-27T01:37:56;2.17;;;0.70;;
75295;SDS011;64623;44.738;37.804;2024-01-27T01:38:59;3.15;;;1.67;;
75295;SDS011;64623;44.738;37.804;2024-01-27T01:40:02;3.13;;;1.40;;
75295;SDS011;64623;44.738;37.804;2024-01-27T01:41:06;3.45;;;1.67;;
75295;SDS011;64623;44.738;37.804;2024-01-27T01:42:09;4.55;;;1.15;;
75295;SDS011;64623;44.738;37.804;2024-01-27T01:43:12;3.85;;;1.10;;
75295;SDS011;64623;44.738;37.804;2024-01-27T01:44:15;2.13;;;0.98;;
75295;SDS011;64623;44.738;37.804;2024-01-27T01:45:18;4.00;;;1.02;;
75295;SDS011;64623;44.738;37.804;2024-01-27T01:46:21;2.45;;;1.00;;
75295;SDS011;64623;44.738;37.804;2024-01-27T01:47:26;3.33;;;1.23;;
75295;SDS011;64623;44.738;37.804;2024-01-27T01:48:29;4.68;;;1.95;;
75295;SDS011;64623;44.738;37.804;2024-01-27T01:49:32;4.63;;;1.63;;
75295;SDS011;64623;44.738;37.804;2024-01-27T01:50:36;4.53;;;1.67;;
75295;SDS011;64623;44.738;37.804;2024-01-27T01:51:43;3.70;;;1.65;;
75295;SDS011;64623;44.738;37.804;2024-01-27T01:52:47;11.20;;;2.22;;
75295;SDS011;64623;44.738;37.804;2024-01-27T01:53:51;12.15;;;2.80;;
75295;SDS011;64623;44.738;37.804;2024-01-27T01:56:04;6.63;;;3.30;;
75295;SDS011;64623;44.738;37.804;2024-01-27T01:57:07;5.80;;;2.78;;
75295;SDS011;64623;44.738;37.804;2024-01-27T01:58:10;7.63;;;2.60;;
75295;SDS011;64623;44.738;37.804;2024-01-27T01:59:13;7.97;;;2.08;;
75295;SDS011;64623;44.738;37.804;2024-01-27T02:00:16;4.50;;;2.28;;
75295;SDS011;64623;44.738;37.804;2024-01-27T02:01:20;5.63;;;2.22;;
75295;SDS011;64623;44.738;37.804;2024-01-27T02:02:24;6.45;;;2.30;;
75295;SDS011;64623;44.738;37.804;2024-01-27T02:03:27;9.43;;;2.45;;
75295;SDS011;64623;44.738;37.804;2024-01-27T02:04:38;4.90;;;2.45;;
75295;SDS011;64623;44.738;37.804;2024-01-27T02:05:42;5.63;;;2.92;;
75295;SDS011;64623;44.738;37.804;2024-01-27T02:06:45;5.03;;;2.33;;
75295;SDS011;64623;44.738;37.804;2024-01-27T02:07:49;3.70;;;2.03;;
75295;SDS011;64623;44.738;37.804;2024-01-27T02:08:52;5.20;;;2.38;;
75295;SDS011;64623;44.738;37.804;2024-01-27T02:09:55;4.88;;;2.30;;
75295;SDS011;64623;44.738;37.804;2024-01-27T02:10:58;5.25;;;2.28;;
75295;SDS011;64623;44.738;37.804;2024-01-27T02:12:04;5.15;;;2.22;;
75295;SDS011;64623;44.738;37.804;2024-01-27T02:13:16;6.18;;;2.72;;
75295;SDS011;64623;44.738;37.804;2024-01-27T02:14:24;7.45;;;2.83;;
75295;SDS011;64623;44.738;37.804;2024-01-27T02:15:29;7.20;;;2.45;;
75295;SDS011;64623;44.738;37.804;2024-01-27T02:16:32;6.15;;;2.53;;
75295;SDS011;64623;44.738;37.804;2024-01-27T02:17:35;5.20;;;1.95;;
75295;SDS011;64623;44.738;37.804;2024-01-27T02:18:41;4.05;;;1.52;;
75295;SDS011;64623;44.738;37.804;2024-01-27T02:19:44;2.50;;;1.00;;
75295;SDS011;64623;44.738;37.804;2024-01-27T02:20:47;2.15;;;0.90;;
75295;SDS011;64623;44.738;37.804;2024-01-27T02:21:50;2.38;;;1.10;;
75295;SDS011;64623;44.738;37.804;2024-01-27T02:22:53;1.90;;;0.57;;
75295;SDS011;64623;44.738;37.804;2024-01-27T02:23:56;1.80;;;0.38;;
75295;SDS011;64623;44.738;37.804;2024-01-27T02:25:00;1.52;;;0.57;;
75295;SDS011;64623;44.738;37.804;2024-01-27T02:26:04;1.30;;;0.50;;
75295;SDS011;64623;44.738;37.804;2024-01-27T02:27:07;1.00;;;0.32;;
75295;SDS011;64623;44.738;37.804;2024-01-27T02:28:10;1.75;;;0.50;;
75295;SDS011;64623;44.738;37.804;2024-01-27T02:29:15;2.67;;;0.73;;
75295;SDS011;64623;44.738;37.804;2024-01-27T02:30:18;1.90;;;0.90;;
75295;SDS011;64623;44.738;37.804;2024-01-27T02:31:21;2.08;;;0.52;;
75295;SDS011;64623;44.738;37.804;2024-01-27T02:32:24;1.92;;;0.60;;
75295;SDS011;64623;44.738;37.804;2024-01-27T02:33:28;1.25;;;0.28;;
75295;SDS011;64623;44.738;37.804;2024-01-27T02:34:31;1.60;;;0.55;;
75295;SDS011;64623;44.738;37.804;2024-01-27T02:35:34;1.08;;;0.45;;
75295;SDS011;64623;44.738;37.804;2024-01-27T02:36:37;1.23;;;0.32;;
75295;SDS011;64623;44.738;37.804;2024-01-27T02:37:41;1.13;;;0.65;;
75295;SDS011;64623;44.738;37.804;2024-01-27T02:38:44;1.92;;;0.57;;
75295;SDS011;64623;44.738;37.804;2024-01-27T02:39:47;0.88;;;0.43;;
75295;SDS011;64623;44.738;37.804;2024-01-27T02:40:50;1.08;;;0.60;;
75295;SDS011;64623;44.738;37.804;2024-01-27T02:41:53;1.42;;;0.93;;
75295;SDS011;64623;44.738;37.804;2024-01-27T02:42:56;2.03;;;0.55;;
75295;SDS011;64623;44.738;37.804;2024-01-27T02:43:59;1.90;;;0.80;;
75295;SDS011;64623;44.738;37.804;2024-01-27T02:45:02;1.48;;;0.45;;
75295;SDS011;64623;44.738;37.804;2024-01-27T02:46:12;2.47;;;1.00;;
75295;SDS011;64623;44.738;37.804;2024-01-27T02:47:17;2.40;;;1.13;;
75295;SDS011;64623;44.738;37.804;2024-01-27T02:48:20;2.63;;;0.90;;
75295;SDS011;64623;44.738;37.804;2024-01-27T02:49:23;1.30;;;0.80;;
75295;SDS011;64623;44.738;37.804;2024-01-27T02:50:26;1.50;;;0.57;;
75295;SDS011;64623;44.738;37.804;2024-01-27T02:51:29;1.70;;;0.68;;
75295;SDS011;64623;44.738;37.804;2024-01-27T02:52:32;2.20;;;0.70;;
75295;SDS011;64623;44.738;37.804;2024-01-27T02:53:35;2.85;;;1.23;;
75295;SDS011;64623;44.738;37.804;2024-01-27T02:54:39;2.15;;;0.75;;
75295;SDS011;64623;44.738;37.804;2024-01-27T02:55:42;1.88;;;0.65;;
75295;SDS011;64623;44.738;37.804;2024-01-27T02:56:45;1.52;;;1.08;;
75295;SDS011;64623;44.738;37.804;2024-01-27T02:57:48;3.05;;;0.70;;
75295;SDS011;64623;44.738;37.804;2024-01-27T02:58:51;2.80;;;0.85;;
75295;SDS011;64623;44.738;37.804;2024-01-27T02:59:54;2.22;;;0.90;;
75295;SDS011;64623;44.738;37.804;2024-01-27T03:00:57;1.88;;;0.85;;
75295;SDS011;64623;44.738;37.804;2024-01-27T03:02:00;3.13;;;1.00;;
75295;SDS011;64623;44.738;37.804;2024-01-27T03:03:03;1.65;;;0.82;;
75295;SDS011;64623;44.738;37.804;2024-01-27T03:04:06;3.20;;;1.08;;
75295;SDS011;64623;44.738;37.804;2024-01-27T03:05:09;2.53;;;0.88;;
75295;SDS011;64623;44.738;37.804;2024-01-27T03:06:16;2.25;;;1.10;;
75295;SDS011;64623;44.738;37.804;2024-01-27T03:07:19;4.38;;;2.85;;
75295;SDS011;64623;44.738;37.804;2024-01-27T03:08:22;3.03;;;1.23;;
75295;SDS011;64623;44.738;37.804;2024-01-27T03:09:25;3.80;;;1.45;;
75295;SDS011;64623;44.738;37.804;2024-01-27T03:10:28;3.70;;;1.38;;
75295;SDS011;64623;44.738;37.804;2024-01-27T03:11:41;2.53;;;1.23;;
75295;SDS011;64623;44.738;37.804;2024-01-27T03:12:44;3.00;;;1.23;;
75295;SDS011;64623;44.738;37.804;2024-01-27T03:13:47;2.53;;;1.10;;
75295;SDS011;64623;44.738;37.804;2024-01-27T03:14:50;3.33;;;2.10;;
75295;SDS011;64623;44.738;37.804;2024-01-27T03:15:54;3.28;;;0.93;;
75295;SDS011;64623;44.738;37.804;2024-01-27T03:16:58;2.75;;;0.63;;
75295;SDS011;64623;44.738;37.804;2024-01-27T03:18:01;2.42;;;1.10;;
75295;SDS011;64623;44.738;37.804;2024-01-27T03:19:05;3.47;;;1.45;;
75295;SDS011;64623;44.738;37.804;2024-01-27T03:20:09;2.60;;;1.10;;
75295;SDS011;64623;44.738;37.804;2024-01-27T03:21:12;3.22;;;1.15;;
75295;SDS011;64623;44.738;37.804;2024-01-27T03:22:15;2.72;;;1.00;;
75295;SDS011;64623;44.738;37.804;2024-01-27T03:23:19;4.60;;;1.38;;
75295;SDS011;64623;44.738;37.804;2024-01-27T03:24:26;2.65;;;1.25;;
75295;SDS011;64623;44.738;37.804;2024-01-27T03:25:29;2.95;;;1.08;;
75295;SDS011;64623;44.738;37.804;2024-01-27T03:26:32;4.38;;;1.20;;
75295;SDS011;64623;44.738;37.804;2024-01-27T03:27:35;2.13;;;1.00;;
75295;SDS011;64623;44.738;37.804;2024-01-27T03:28:38;2.00;;;0.95;;
75295;SDS011;64623;44.738;37.804;2024-01-27T03:29:41;2.00;;;1.20;;
75295;SDS011;64623;44.738;37.804;2024-01-27T03:30:44;2.35;;;1.00;;
75295;SDS011;64623;44.738;37.804;2024-01-27T03:31:47;2.72;;;1.42;;
75295;SDS011;64623;44.738;37.804;2024-01-27T03:32:51;2.60;;;1.65;;
75295;SDS011;64623;44.738;37.804;2024-01-27T03:33:54;4.57;;;1.75;;
75295;SDS011;64623;44.738;37.804;2024-01-27T03:34:59;3.95;;;2.50;;
75295;SDS011;64623;44.738;37.804;2024-01-27T03:36:02;3.38;;;2.05;;
75295;SDS011;64623;44.738;37.804;2024-01-27T03:37:05;3.92;;;1.83;;
75295;SDS011;64623;44.738;37.804;2024-01-27T03:38:08;2.92;;;1.60;;
75295;SDS011;64623;44.738;37.804;2024-01-27T03:39:11;3.60;;;2.55;;
75295;SDS011;64623;44.738;37.804;2024-01-27T03:40:14;2.90;;;1.33;;
75295;SDS011;64623;44.738;37.804;2024-01-27T03:41:17;3.72;;;2.13;;
75295;SDS011;64623;44.738;37.804;2024-01-27T03:42:20;3.92;;;2.25;;
75295;SDS011;64623;44.738;37.804;2024-01-27T03:43:23;5.05;;;2.80;;
75295;SDS011;64623;44.738;37.804;2024-01-27T03:44:26;2.80;;;1.60;;
75295;SDS011;64623;44.738;37.804;2024-01-27T03:45:29;4.13;;;2.40;;
75295;SDS011;64623;44.738;37.804;2024-01-27T03:46:33;4.40;;;2.45;;
75295;SDS011;64623;44.738;37.804;2024-01-27T03:47:36;5.05;;;2.00;;
75295;SDS011;64623;44.738;37.804;2024-01-27T03:48:39;4.97;;;2.42;;
75295;SDS011;64623;44.738;37.804;2024-01-27T03:49:43;5.63;;;3.22;;
75295;SDS011;64623;44.738;37.804;2024-01-27T03:50:46;5.68;;;3.53;;
75295;SDS011;64623;44.738;37.804;2024-01-27T03:51:49;6.85;;;3.47;;
75295;SDS011;64623;44.738;37.804;2024-01-27T03:52:52;5.93;;;3.75;;
75295;SDS011;64623;44.738;37.804;2024-01-27T03:53:55;6.38;;;3.70;;
75295;SDS011;64623;44.738;37.804;2024-01-27T03:54:59;6.35;;;3.88;;
75295;SDS011;64623;44.738;37.804;2024-01-27T03:56:02;5.97;;;3.22;;
75295;SDS011;64623;44.738;37.804;2024-01-27T03:57:06;5.50;;;3.08;;
75295;SDS011;64623;44.738;37.804;2024-01-27T03:58:09;7.30;;;4.53;;
75295;SDS011;64623;44.738;37.804;2024-01-27T03:59:13;9.95;;;6.05;;
75295;SDS011;64623;44.738;37.804;2024-01-27T04:00:16;7.60;;;5.03;;
75295;SDS011;64623;44.738;37.804;2024-01-27T04:01:19;7.93;;;4.68;;
75295;SDS011;64623;44.738;37.804;2024-01-27T04:02:23;9.90;;;5.88;;
75295;SDS011;64623;44.738;37.804;2024-01-27T04:03:26;8.73;;;5.55;;
75295;SDS011;64623;44.738;37.804;2024-01-27T04:04:29;7.40;;;4.50;;
75295;SDS011;64623;44.738;37.804;2024-01-27T04:05:32;7.07;;;4.20;;
75295;SDS011;64623;44.738;37.804;2024-01-27T04:06:39;6.60;;;3.65;;
75295;SDS011;64623;44.738;37.804;2024-01-27T04:07:43;6.50;;;3.67;;
75295;SDS011;64623;44.738;37.804;2024-01-27T04:08:46;6.43;;;4.65;;
75295;SDS011;64623;44.738;37.804;2024-01-27T04:09:49;6.15;;;3.83;;
75295;SDS011;64623;44.738;37.804;2024-01-27T04:10:52;5.60;;;3.80;;
75295;SDS011;64623;44.738;37.804;2024-01-27T04:11:55;6.80;;;4.78;;
75295;SDS011;64623;44.738;37.804;2024-01-27T04:12:59;5.40;;;3.33;;
75295;SDS011;64623;44.738;37.804;2024-01-27T04:14:03;5.82;;;3.53;;
75295;SDS011;64623;44.738;37.804;2024-01-27T04:15:07;6.28;;;4.40;;
75295;SDS011;64623;44.738;37.804;2024-01-27T04:16:11;5.63;;;3.42;;
75295;SDS011;64623;44.738;37.804;2024-01-27T04:17:14;5.32;;;3.90;;
75295;SDS011;64623;44.738;37.804;2024-01-27T04:18:17;5.60;;;3.63;;
75295;SDS011;64623;44.738;37.804;2024-01-27T04:19:20;5.35;;;3.70;;
75295;SDS011;64623;44.738;37.804;2024-01-27T04:20:23;5.88;;;3.67;;
75295;SDS011;64623;44.738;37.804;2024-01-27T04:21:27;6.15;;;4.53;;
75295;SDS011;64623;44.738;37.804;2024-01-27T04:22:30;6.32;;;3.63;;
75295;SDS011;64623;44.738;37.804;2024-01-27T04:23:33;4.32;;;3.13;;
75295;SDS011;64623;44.738;37.804;2024-01-27T04:24:37;4.82;;;3.78;;
75295;SDS011;64623;44.738;37.804;2024-01-27T04:25:40;4.53;;;3.40;;
75295;SDS011;64623;44.738;37.804;2024-01-27T04:26:43;4.60;;;2.90;;
75295;SDS011;64623;44.738;37.804;2024-01-27T04:27:46;3.78;;;2.72;;
75295;SDS011;64623;44.738;37.804;2024-01-27T04:28:50;4.88;;;2.78;;
75295;SDS011;64623;44.738;37.804;2024-01-27T04:29:53;3.80;;;2.83;;
75295;SDS011;64623;44.738;37.804;2024-01-27T04:30:56;3.35;;;2.03;;
75295;SDS011;64623;44.738;37.804;2024-01-27T04:31:59;3.45;;;2.38;;
75295;SDS011;64623;44.738;37.804;2024-01-27T04:33:03;3.70;;;2.85;;
75295;SDS011;64623;44.738;37.804;2024-01-27T04:34:09;4.10;;;2.67;;
75295;SDS011;64623;44.738;37.804;2024-01-27T04:35:13;4.32;;;3.78;;
75295;SDS011;64623;44.738;37.804;2024-01-27T04:36:24;3.75;;;2.70;;
75295;SDS011;64623;44.738;37.804;2024-01-27T04:37:33;4.32;;;3.50;;
75295;SDS011;64623;44.738;37.804;2024-01-27T04:38:36;4.55;;;3.15;;
75295;SDS011;64623;44.738;37.804;2024-01-27T04:39:42;3.97;;;2.90;;
75295;SDS011;64623;44.738;37.804;2024-01-27T04:40:45;5.53;;;3.85;;
75295;SDS011;64623;44.738;37.804;2024-01-27T04:41:49;5.25;;;3.17;;
75295;SDS011;64623;44.738;37.804;2024-01-27T04:42:52;3.15;;;1.77;;
75295;SDS011;64623;44.738;37.804;2024-01-27T04:43:55;3.05;;;2.15;;
75295;SDS011;64623;44.738;37.804;2024-01-27T04:44:59;1.88;;;0.90;;
75295;SDS011;64623;44.738;37.804;2024-01-27T04:46:04;2.20;;;1.63;;
75295;SDS011;64623;44.738;37.804;2024-01-27T04:47:07;1.92;;;1.42;;
75295;SDS011;64623;44.738;37.804;2024-01-27T04:48:10;1.95;;;1.33;;
75295;SDS011;64623;44.738;37.804;2024-01-27T04:49:14;3.03;;;1.20;;
75295;SDS011;64623;44.738;37.804;2024-01-27T04:50:17;1.92;;;1.00;;
75295;SDS011;64623;44.738;37.804;2024-01-27T04:51:20;1.75;;;0.63;;
75295;SDS011;64623;44.738;37.804;2024-01-27T04:52:23;1.08;;;0.47;;
75295;SDS011;64623;44.738;37.804;2024-01-27T04:53:27;0.70;;;0.30;;
75295;SDS011;64623;44.738;37.804;2024-01-27T04:54:30;0.70;;;0.40;;
75295;SDS011;64623;44.738;37.804;2024-01-27T04:55:33;0.88;;;0.30;;
75295;SDS011;64623;44.738;37.804;2024-01-27T04:56:36;1.00;;;0.52;;
75295;SDS011;64623;44.738;37.804;2024-01-27T04:57:39;0.82;;;0.30;;
75295;SDS011;64623;44.738;37.804;2024-01-27T04:58:42;0.43;;;0.10;;
75295;SDS011;64623;44.738;37.804;2024-01-27T04:59:45;0.30;;;0.10;;
75295;SDS011;64623;44.738;37.804;2024-01-27T05:00:48;0.70;;;0.30;;
75295;SDS011;64623;44.738;37.804;2024-01-27T05:01:51;0.40;;;0.10;;
75295;SDS011;64623;44.738;37.804;2024-01-27T05:02:54;0.50;;;0.32;;
75295;SDS011;64623;44.738;37.804;2024-01-27T05:04:23;1.23;;;0.55;;
75295;SDS011;64623;44.738;37.804;2024-01-27T05:05:29;0.80;;;0.30;;
75295;SDS011;64623;44.738;37.804;2024-01-27T05:06:33;0.77;;;0.22;;
75295;SDS011;64623;44.738;37.804;2024-01-27T05:07:36;0.73;;;0.57;;
75295;SDS011;64623;44.738;37.804;2024-01-27T05:08:39;1.27;;;0.30;;
75295;SDS011;64623;44.738;37.804;2024-01-27T05:09:42;1.35;;;0.40;;
75295;SDS011;64623;44.738;37.804;2024-01-27T05:10:45;0.73;;;0.40;;
75295;SDS011;64623;44.738;37.804;2024-01-27T05:11:48;0.80;;;0.40;;
75295;SDS011;64623;44.738;37.804;2024-01-27T05:12:53;0.77;;;0.40;;
75295;SDS011;64623;44.738;37.804;2024-01-27T05:13:59;1.13;;;0.40;;
75295;SDS011;64623;44.738;37.804;2024-01-27T05:15:09;1.00;;;0.40;;
75295;SDS011;64623;44.738;37.804;2024-01-27T05:16:13;1.58;;;0.70;;
75295;SDS011;64623;44.738;37.804;2024-01-27T05:17:15;1.33;;;0.68;;
75295;SDS011;64623;44.738;37.804;2024-01-27T05:18:18;3.20;;;2.05;;
75295;SDS011;64623;44.738;37.804;2024-01-27T05:19:22;1.23;;;0.77;;
75295;SDS011;64623;44.738;37.804;2024-01-27T05:20:25;1.55;;;0.88;;
75295;SDS011;64623;44.738;37.804;2024-01-27T05:21:28;2.10;;;1.17;;
75295;SDS011;64623;44.738;37.804;2024-01-27T05:22:31;1.38;;;1.00;;
75295;SDS011;64623;44.738;37.804;2024-01-27T05:23:34;1.80;;;1.40;;
75295;SDS011;64623;44.738;37.804;2024-01-27T05:24:47;2.65;;;1.13;;
75295;SDS011;64623;44.738;37.804;2024-01-27T05:25:50;1.88;;;0.98;;
75295;SDS011;64623;44.738;37.804;2024-01-27T05:26:53;2.38;;;1.40;;
75295;SDS011;64623;44.738;37.804;2024-01-27T05:27:56;2.30;;;1.38;;
75295;SDS011;64623;44.738;37.804;2024-01-27T05:28:58;2.28;;;1.40;;
75295;SDS011;64623;44.738;37.804;2024-01-27T05:30:01;2.53;;;1.50;;
75295;SDS011;64623;44.738;37.804;2024-01-27T05:31:07;2.88;;;2.40;;
75295;SDS011;64623;44.738;37.804;2024-01-27T05:32:15;2.55;;;1.88;;
75295;SDS011;64623;44.738;37.804;2024-01-27T05:33:18;2.78;;;1.83;;
75295;SDS011;64623;44.738;37.804;2024-01-27T05:34:21;2.38;;;1.83;;
75295;SDS011;64623;44.738;37.804;2024-01-27T05:35:24;2.50;;;1.50;;
75295;SDS011;64623;44.738;37.804;2024-01-27T05:36:27;3.83;;;2.00;;
75295;SDS011;64623;44.738;37.804;2024-01-27T05:37:30;4.97;;;3.60;;
75295;SDS011;64623;44.738;37.804;2024-01-27T05:38:33;3.90;;;2.47;;
75295;SDS011;64623;44.738;37.804;2024-01-27T05:39:35;4.20;;;2.88;;
75295;SDS011;64623;44.738;37.804;2024-01-27T05:40:38;3.53;;;2.70;;
75295;SDS011;64623;44.738;37.804;2024-01-27T05:41:42;4.45;;;2.88;;
75295;SDS011;64623;44.738;37.804;2024-01-27T05:42:45;4.97;;;3.28;;
75295;SDS011;64623;44.738;37.804;2024-01-27T05:43:48;4.57;;;2.80;;
75295;SDS011;64623;44.738;37.804;2024-01-27T05:44:54;4.78;;;3.00;;
75295;SDS011;64623;44.738;37.804;2024-01-27T05:45:57;5.18;;;3.40;;
75295;SDS011;64623;44.738;37.804;2024-01-27T05:47:00;5.43;;;3.40;;
75295;SDS011;64623;44.738;37.804;2024-01-27T05:48:03;4.93;;;3.75;;
75295;SDS011;64623;44.738;37.804;2024-01-27T05:49:07;4.53;;;2.80;;
75295;SDS011;64623;44.738;37.804;2024-01-27T05:50:10;4.43;;;3.03;;
75295;SDS011;64623;44.738;37.804;2024-01-27T05:51:13;4.82;;;3.03;;
75295;SDS011;64623;44.738;37.804;2024-01-27T05:52:16;4.63;;;3.25;;
75295;SDS011;64623;44.738;37.804;2024-01-27T05:53:19;5.57;;;3.25;;
75295;SDS011;64623;44.738;37.804;2024-01-27T05:54:22;4.25;;;2.90;;
75295;SDS011;64623;44.738;37.804;2024-01-27T05:55:25;6.15;;;3.65;;
75295;SDS011;64623;44.738;37.804;2024-01-27T05:56:28;5.13;;;3.53;;
75295;SDS011;64623;44.738;37.804;2024-01-27T05:57:31;6.55;;;4.57;;
75295;SDS011;64623;44.738;37.804;2024-01-27T05:58:34;6.15;;;3.28;;
75295;SDS011;64623;44.738;37.804;2024-01-27T05:59:37;5.80;;;3.63;;
75295;SDS011;64623;44.738;37.804;2024-01-27T06:00:42;5.28;;;3.40;;
75295;SDS011;64623;44.738;37.804;2024-01-27T06:01:46;5.05;;;3.58;;
75295;SDS011;64623;44.738;37.804;2024-01-27T06:02:49;6.00;;;3.97;;
75295;SDS011;64623;44.738;37.804;2024-01-27T06:03:52;3.95;;;2.83;;
75295;SDS011;64623;44.738;37.804;2024-01-27T06:04:55;5.30;;;3.25;;
75295;SDS011;64623;44.738;37.804;2024-01-27T06:05:58;5.35;;;3.63;;
75295;SDS011;64623;44.738;37.804;2024-01-27T06:07:02;5.03;;;3.75;;
75295;SDS011;64623;44.738;37.804;2024-01-27T06:08:05;4.50;;;3.20;;
75295;SDS011;64623;44.738;37.804;2024-01-27T06:09:09;3.90;;;2.95;;
75295;SDS011;64623;44.738;37.804;2024-01-27T06:10:13;4.93;;;3.63;;
75295;SDS011;64623;44.738;37.804;2024-01-27T06:11:25;5.85;;;3.17;;
75295;SDS011;64623;44.738;37.804;2024-01-27T06:12:28;5.47;;;3.85;;
75295;SDS011;64623;44.738;37.804;2024-01-27T06:13:31;5.03;;;3.40;;
75295;SDS011;64623;44.738;37.804;2024-01-27T06:14:40;6.15;;;3.67;;
75295;SDS011;64623;44.738;37.804;2024-01-27T06:15:44;7.22;;;4.57;;
75295;SDS011;64623;44.738;37.804;2024-01-27T06:16:47;5.82;;;3.92;;
75295;SDS011;64623;44.738;37.804;2024-01-27T06:17:50;6.68;;;4.07;;
75295;SDS011;64623;44.738;37.804;2024-01-27T06:18:52;6.55;;;4.47;;